Map

Track Data

SID SEASON NUMBER BASIN SUBBASIN NAME ISO_TIME NATURE LAT LON WMO_WIND WMO_PRES WMO_AGENCY TRACK_TYPE DIST2LAND LANDFALL IFLAG USA_AGENCY USA_ATCF_ID USA_LAT USA_LON USA_RECORD USA_STATUS USA_WIND USA_PRES USA_SSHS USA_R34_NE USA_R34_SE USA_R34_SW USA_R34_NW USA_R50_NE USA_R50_SE USA_R50_SW USA_R50_NW USA_R64_NE USA_R64_SE USA_R64_SW USA_R64_NW USA_POCI USA_ROCI USA_RMW USA_EYE TOKYO_LAT TOKYO_LON TOKYO_GRADE TOKYO_WIND TOKYO_PRES TOKYO_R50_DIR TOKYO_R50_LONG TOKYO_R50_SHORT TOKYO_R30_DIR TOKYO_R30_LONG TOKYO_R30_SHORT TOKYO_LAND CMA_LAT CMA_LON CMA_CAT CMA_WIND CMA_PRES HKO_LAT HKO_LON HKO_CAT HKO_WIND HKO_PRES NEWDELHI_LAT NEWDELHI_LON NEWDELHI_GRADE NEWDELHI_WIND NEWDELHI_PRES NEWDELHI_CI NEWDELHI_DP NEWDELHI_POCI REUNION_LAT REUNION_LON REUNION_TYPE REUNION_WIND REUNION_PRES REUNION_TNUM REUNION_CI REUNION_RMW REUNION_R34_NE REUNION_R34_SE REUNION_R34_SW REUNION_R34_NW REUNION_R50_NE REUNION_R50_SE REUNION_R50_SW REUNION_R50_NW REUNION_R64_NE REUNION_R64_SE REUNION_R64_SW REUNION_R64_NW BOM_LAT BOM_LON BOM_TYPE BOM_WIND BOM_PRES BOM_TNUM BOM_CI BOM_RMW BOM_R34_NE BOM_R34_SE BOM_R34_SW BOM_R34_NW BOM_R50_NE BOM_R50_SE BOM_R50_SW BOM_R50_NW BOM_R64_NE BOM_R64_SE BOM_R64_SW BOM_R64_NW BOM_ROCI BOM_POCI BOM_EYE BOM_POS_METHOD BOM_PRES_METHOD NADI_LAT NADI_LON NADI_CAT NADI_WIND NADI_PRES WELLINGTON_LAT WELLINGTON_LON WELLINGTON_WIND WELLINGTON_PRES DS824_LAT DS824_LON DS824_STAGE DS824_WIND DS824_PRES TD9636_LAT TD9636_LON TD9636_STAGE TD9636_WIND TD9636_PRES TD9635_LAT TD9635_LON TD9635_WIND TD9635_PRES TD9635_ROCI NEUMANN_LAT NEUMANN_LON NEUMANN_CLASS NEUMANN_WIND NEUMANN_PRES MLC_LAT MLC_LON MLC_CLASS MLC_WIND MLC_PRES USA_GUST BOM_GUST BOM_GUST_PER REUNION_GUST REUNION_GUST_PER USA_SEAHGT USA_SEARAD_NE USA_SEARAD_SE USA_SEARAD_SW USA_SEARAD_NW STORM_SPEED STORM_DIR
1874268N18274 1874 20 NA CS NOT_NAMED 1874-09-25 00:00:00 TS 17.5000 -86.4000 40 hurdat_atl main 167 114 O____________O hurdat_atl AL061874 17.5000 -86.4000 TS 40 0 17.5000 -86.4000 TS 40 10 311
1874268N18274 1874 20 NA CS NOT_NAMED 1874-09-25 03:00:00 TS 17.8227 -86.7821 main 114 74 P____________P AL061874 17.8227 -86.7821 TS 40 0 17.8227 -86.7821 TS 40 9 312
1874268N18274 1874 20 NA CS NOT_NAMED 1874-09-25 06:00:00 TS 18.1000 -87.1000 40 hurdat_atl main 74 52 O____________O hurdat_atl AL061874 18.1000 -87.1000 TS 40 0 18.1000 -87.1000 TS 40 7 314
1874268N18274 1874 20 NA CS NOT_NAMED 1874-09-25 09:00:00 TS 18.3074 -87.3153 main 52 23 P____________P AL061874 18.3074 -87.3153 TS 45 0 18.3074 -87.3153 TS 45 6 317
1874268N18274 1874 20 NA CS NOT_NAMED 1874-09-25 12:00:00 TS 18.5000 -87.5000 50 hurdat_atl main 23 0 O____________O hurdat_atl AL061874 18.5000 -87.5000 TS 50 0 18.5000 -87.5000 TS 50 6 316
1874268N18274 1874 20 NA CS NOT_NAMED 1874-09-25 15:00:00 TS 18.7350 -87.7500 main 0 0 P____________P AL061874 18.7350 -87.7500 TS 45 0 18.7350 -87.7500 TS 45 7 317
1874268N18274 1874 20 NA NA NOT_NAMED 1874-09-25 18:00:00 TS 19.0000 -88.0000 40 hurdat_atl main 0 0 O____________O hurdat_atl AL061874 19.0000 -88.0000 TS 40 0 19.0000 -88.0000 TS 40 7 320
1874268N18274 1874 20 NA NA NOT_NAMED 1874-09-25 21:00:00 TS 19.2775 -88.2225 main 0 0 P____________P AL061874 19.2775 -88.2225 TS 40 0 19.2775 -88.2225 TS 40 7 328
1874268N18274 1874 20 NA NA NOT_NAMED 1874-09-26 00:00:00 TS 19.6000 -88.4000 40 hurdat_atl main 0 0 O____________O hurdat_atl AL061874 19.6000 -88.4000 TS 40 0 19.6000 -88.4000 TS 40 8 339
1874268N18274 1874 20 NA NA NOT_NAMED 1874-09-26 03:00:00 TS 19.9850 -88.5151 main 0 0 P____________P AL061874 19.9850 -88.5151 TS 35 0 19.9850 -88.5151 TS 35 8 347
1874268N18274 1874 20 NA NA NOT_NAMED 1874-09-26 06:00:00 TS 20.4000 -88.6000 30 hurdat_atl main 0 0 O____________O hurdat_atl AL061874 20.4000 -88.6000 TD 30 -1 20.4000 -88.6000 TD 30 8 345
1874268N18274 1874 20 NA NA NOT_NAMED 1874-09-26 09:00:00 TS 20.7850 -88.7372 main 0 0 P____________P AL061874 20.7850 -88.7372 TD 30 -1 20.7850 -88.7372 TD 30 8 347
1874268N18274 1874 20 NA NA NOT_NAMED 1874-09-26 12:00:00 TS 21.2000 -88.8000 30 hurdat_atl main 0 0 O____________O hurdat_atl AL061874 21.2000 -88.8000 TD 30 -1 21.2000 -88.8000 TD 30 9 2
1874268N18274 1874 20 NA GM NOT_NAMED 1874-09-26 15:00:00 TS 21.6850 -88.7026 main 24 24 P____________P AL061874 21.6850 -88.7026 TD 35 0 21.6850 -88.7026 TD 35 10 16
1874268N18274 1874 20 NA GM NOT_NAMED 1874-09-26 18:00:00 TS 22.2000 -88.5000 40 hurdat_atl main 78 78 O____________O hurdat_atl AL061874 22.2000 -88.5000 TS 40 0 22.2000 -88.5000 TS 40 11 22
1874268N18274 1874 20 NA GM NOT_NAMED 1874-09-26 21:00:00 TS 22.6975 -88.2600 main 134 134 P____________P AL061874 22.7000 -88.2650 TS 45 0 22.6926 -88.2501 TS 45 11 25
1874268N18274 1874 20 NA GM NOT_NAMED 1874-09-27 00:00:00 TS 23.2000 -88.0000 50 hurdat_atl main 190 190 O____________O hurdat_atl AL061874 23.2000 -88.0000 TS 50 0 23.2000 -88.0000 TS 50 11 22
1874268N18274 1874 20 NA GM NOT_NAMED 1874-09-27 03:00:00 TS 23.7164 -87.8053 main 245 245 P____________P AL061874 23.6997 -87.7869 TS 50 0 23.7499 -87.8422 TS 50 11 21
1874268N18274 1874 20 NA GM NOT_NAMED 1874-09-27 06:00:00 TS 24.2333 -87.5667 50 hurdat_atl main 301 301 O____________O hurdat_atl AL061874 24.2000 -87.5000 TS 50 0 24.3000 -87.7000 TS 50 11 28
1874268N18274 1874 20 NA GM NOT_NAMED 1874-09-27 09:00:00 TS 24.7032 -87.2232 main 357 357 P____________P AL061874 24.6548 -87.0664 TS 55 0 24.7998 -87.5370 TS 55 12 36
1874268N18274 1874 20 NA GM NOT_NAMED 1874-09-27 12:00:00 TS 25.2333 -86.7667 60 hurdat_atl main 398 390 O____________O hurdat_atl AL061874 25.2000 -86.5000 TS 60 0 25.3000 -87.3000 TS 60 15 37
1874268N18274 1874 20 NA GM NOT_NAMED 1874-09-27 15:00:00 TS 25.9300 -86.2044 main 390 303 P____________P AL061874 25.9700 -85.8378 TS 60 0 25.8500 -86.9376 TS 60 18 37
1874268N18274 1874 20 NA GM NOT_NAMED 1874-09-27 18:00:00 TS 26.6667 -85.5667 60 hurdat_atl main 298 221 O____________O hurdat_atl AL061874 26.8000 -85.1000 TS 60 0 26.4000 -86.5000 TS 60 18 40
1874268N18274 1874 20 NA GM NOT_NAMED 1874-09-27 21:00:00 TS 27.2665 -84.9304 main 207 137 P____________P AL061874 27.4726 -84.3453 TS 65 1 26.8544 -86.1005 TS 60 17 42
1874268N18274 1874 20 NA GM NOT_NAMED 1874-09-28 00:00:00 TS 27.9333 -84.2667 70 hurdat_atl main 137 65 O____________O hurdat_atl AL061874 28.2000 -83.6000 HU 70 1 27.4000 -85.6000 TS 60 20 38
1874268N18274 1874 20 NA GM NOT_NAMED 1874-09-28 03:00:00 TS 28.8017 -83.5677 70 hurdat_atl main 65 0 O____________P hurdat_atl AL061874 29.1000 -82.9000 L HU 70 1 28.2052 -84.9030 TS 65 20 36
1874268N18274 1874 20 NA NA NOT_NAMED 1874-09-28 06:00:00 TS 29.5667 -82.9000 60 hurdat_atl main 0 0 O____________O hurdat_atl AL061874 29.8000 -82.3000 TS 60 0 29.1000 -84.1000 HU 70 20 37
1874268N18274 1874 20 NA NA NOT_NAMED 1874-09-28 09:00:00 TS 30.3621 -82.1930 main 0 0 P____________P AL061874 30.5933 -81.6401 TS 65 1 29.8998 -83.2987 HU 72 20 37
1874268N18274 1874 20 NA NA NOT_NAMED 1874-09-28 12:00:00 TS 31.1667 -81.5000 70 hurdat_atl main 0 0 O____________O hurdat_atl AL061874 31.4000 -81.0000 HU 70 1 30.7000 -82.5000 HU 75 19 35
1874268N18274 1874 20 NA NA NOT_NAMED 1874-09-28 15:00:00 TS 31.9361 -80.9004 main 0 0 P____________P AL061874 32.1295 -80.4762 HU 75 1 31.5493 -81.7486 HU 77 18 33
1874268N18274 1874 20 NA NA NOT_NAMED 1874-09-28 18:00:00 TS 32.6667 -80.3333 80 981 hurdat_atl main 0 0 O____________O hurdat_atl AL061874 32.8000 -80.0000 L HU 80 981 1 32.4000 -81.0000 HU 80 981 17 35
1874268N18274 1874 20 NA NA NOT_NAMED 1874-09-28 21:00:00 TS 33.3406 -79.7346 main 0 0 P____________P AL061874 33.4148 -79.4991 HU 75 1 33.1921 -80.2056 HU 75 17 37
1874268N18274 1874 20 NA NA NOT_NAMED 1874-09-29 00:00:00 TS 34.0000 -79.1333 70 hurdat_atl main 0 0 O____________O hurdat_atl AL061874 34.0000 -79.0000 HU 70 1 34.0000 -79.4000 HU 70 17 37
1874268N18274 1874 20 NA NA NOT_NAMED 1874-09-29 03:00:00 TS 34.6847 -78.5299 main 0 0 P____________P AL061874 34.5698 -78.4987 HU 65 1 34.9146 -78.5923 HU 65 17 35
1874268N18274 1874 20 NA NA NOT_NAMED 1874-09-29 06:00:00 TS 35.4000 -77.9333 60 hurdat_atl main 0 0 O____________O hurdat_atl AL061874 35.2000 -78.0000 TS 60 0 35.8000 -77.8000 TS 60 17 33
1874268N18274 1874 20 NA NA NOT_NAMED 1874-09-29 09:00:00 TS 36.1310 -77.3675 main 0 0 P____________P AL061874 35.9318 -77.5348 TS 55 0 36.5295 -77.0328 TS 55 18 32
1874268N18274 1874 20 NA NA NOT_NAMED 1874-09-29 12:00:00 TS 36.9333 -76.7667 50 hurdat_atl main 0 0 O____________O hurdat_atl AL061874 36.8000 -77.0000 TS 50 0 37.2000 -76.3000 TS 50 20 31
1874268N18274 1874 20 NA NA NOT_NAMED 1874-09-29 15:00:00 TS 37.8438 -76.0723 main 14 0 P____________P AL061874 37.8196 -76.3166 TS 50 0 37.8921 -75.5835 TS 50 22 32
1874268N18274 1874 20 NA NA NOT_NAMED 1874-09-29 18:00:00 TS 38.8000 -75.3000 50 hurdat_atl main 0 0 O____________O hurdat_atl AL061874 38.9000 -75.5000 TS 50 0 38.6000 -74.9000 TS 50 23 34
1874268N18274 1874 20 NA NA NOT_NAMED 1874-09-29 21:00:00 TS 39.7288 -74.4711 main 0 0 P____________P AL061874 39.9222 -74.5861 TS 55 0 39.3420 -74.2411 TS 55 23 35
1874268N18274 1874 20 NA NA NOT_NAMED 1874-09-30 00:00:00 MX 40.6333 -73.6000 60 hurdat_atl main 0 0 O____________O hurdat_atl AL061874 40.9000 -73.6000 TS 60 0 40.1000 -73.6000 EX 60 22 37
1874268N18274 1874 20 NA NA NOT_NAMED 1874-09-30 03:00:00 MX 41.5057 -72.7005 main 0 0 P____________P AL061874 41.8300 -72.5763 TS 60 0 40.8571 -72.9488 EX 60 22 38
1874268N18274 1874 20 NA NA NOT_NAMED 1874-09-30 06:00:00 MX 42.3333 -71.8333 60 hurdat_atl main 0 0 O____________O hurdat_atl AL061874 42.7000 -71.6000 TS 60 0 41.6000 -72.3000 EX 60 20 37
1874268N18274 1874 20 NA NA NOT_NAMED 1874-09-30 09:00:00 MX 43.0780 -71.1066 main 0 0 P____________P AL061874 43.5056 -70.7945 TS 60 0 42.2228 -71.7308 EX 60 19 36
1874268N18274 1874 20 NA NA NOT_NAMED 1874-09-30 12:00:00 ET 43.8667 -70.3333 60 hurdat_atl main 0 0 O____________O hurdat_atl AL061874 44.3000 -70.0000 EX 60 -4 43.0000 -71.0000 EX 60 21 37
1874268N18274 1874 20 NA NA NOT_NAMED 1874-09-30 15:00:00 ET 44.8018 -69.3347 main 0 0 P____________P AL061874 45.1189 -69.0629 EX 60 -4 44.1677 -69.8783 EX 60 25 38
1874268N18274 1874 20 NA NA NOT_NAMED 1874-09-30 18:00:00 ET 45.8333 -68.1667 60 980 hurdat_atl main 0 0 O____________O hurdat_atl AL061874 46.0000 -68.0000 EX 60 980 -4 45.5000 -68.5000 EX 60 980 27 39
1874268N18274 1874 20 NA NA NOT_NAMED 1874-09-30 21:00:00 ET 46.9143 -66.8578 main 0 0 P____________P AL061874 46.9774 -66.7861 EX 55 -4 46.7882 -67.0013 EX 55 28 40
1874268N18274 1874 20 NA NA NOT_NAMED 1874-10-01 00:00:00 ET 48.0000 -65.5000 50 hurdat_atl main 0 0 O____________O hurdat_atl AL061874 48.0000 -65.5000 EX 50 -4 48.0000 -65.5000 EX 50 27 40
1874268N18274 1874 20 NA NA NOT_NAMED 1874-10-01 03:00:00 ET 49.0231 -64.2277 main 11 0 P____________P AL061874 49.0093 -64.2458 EX 50 -4 49.0506 -64.1915 EX 50 26 39
1874268N18274 1874 20 NA NA NOT_NAMED 1874-10-01 06:00:00 ET 50.0000 -63.0000 50 hurdat_atl main 26 O____________O hurdat_atl AL061874 50.0000 -63.0000 EX 50 -4 50.0000 -63.0000 EX 50 25 39

About IBTrACS Database

This database is a web-friendly format of International Best Track Archive for Climate Stewardship (IBTrACS), a global best track data archive curated by NOAA dating back to 1842.

Updated: 2021-10-08